Friday, April 25, 2014, 12:23 AM EDT

KPTW, Pottstown Limerick Airport

Location: Royersford, PA, United States Lat: 40.233
Local Time: 12:23 AM EDT ( 4:23 GMT) Lon: -75.55
Time Zone: US/Eastern Elev: 291 ft

Show me the last for .
Show Decoded

2014-04-24 22:54 METAR KPTW 250254Z AUTO 03007KT 10SM CLR 10/M11 A3004 RMK AO2 SLP169 T01001111
                 50009 =
2014-04-24 21:54 METAR KPTW 250154Z AUTO 01004KT 10SM CLR 11/M11 A3004 RMK AO2 SLP170 T01061106 =
2014-04-24 20:54 METAR KPTW 250054Z AUTO 02006KT 10SM CLR 11/M10 A3003 RMK AO2 SLP167 T01111100 =
2014-04-24 19:54 METAR KPTW 242354Z AUTO 35008KT 10SM CLR 13/M11 A3001 RMK AO2 SLP160 T01331106
                 10167 20133 53016 =
2014-04-24 18:54 METAR KPTW 242254Z AUTO 32006KT 10SM CLR 16/M09 A2998 RMK AO2 SLP151 T01561089 =
2014-04-24 17:54 METAR KPTW 242154Z AUTO 33006KT 10SM CLR 16/M08 A2997 RMK AO2 SLP147 T01611078 =
2014-04-24 16:54 METAR KPTW 242054Z AUTO 33010KT 10SM CLR 16/M08 A2996 RMK AO2 SLP144 T01611078
                 56012 =
2014-04-24 15:54 METAR KPTW 241954Z AUTO 32011G20KT 10SM CLR 16/M08 A2997 RMK AO2 SLP147
                 T01561083 =
2014-04-24 14:54 METAR KPTW 241854Z AUTO 33018G22KT 10SM CLR 15/M07 A2999 RMK AO2 SLP152
                 T01501067 =
2014-04-24 13:54 METAR KPTW 241754Z AUTO 32011G21KT 10SM CLR 14/M07 A3000 RMK AO2 SLP156
                 T01391067 10139 20056 58020 =
2014-04-24 12:54 METAR KPTW 241654Z AUTO 34008G20KT 10SM CLR 13/M07 A3001 RMK AO2 SLP161
                 T01281072 =
2014-04-24 11:54 METAR KPTW 241554Z AUTO 32012G22KT 10SM CLR 11/M07 A3005 RMK AO2 SLP173
                 T01111067 =
2014-04-24 10:54 METAR KPTW 241454Z AUTO 29010G17KT 10SM CLR 10/M07 A3006 RMK AO2 SLP176
                 T01001067 50006 =
2014-04-24 09:54 METAR KPTW 241354Z AUTO 29008G19KT 10SM CLR 08/M07 A3006 RMK AO2 SLP178
                 T00781072 =
2014-04-24 08:54 METAR KPTW 241254Z AUTO 31013G21KT 10SM CLR 07/M07 A3005 RMK AO2 SLP175
                 T00721072 =
2014-04-24 07:54 METAR KPTW 241154Z AUTO 30010KT 10SM CLR 06/M07 A3004 RMK AO2 SLP170 T00561067
                 10056 20028 51027 =
2014-04-24 06:54 METAR KPTW 241054Z AUTO 28003KT 10SM CLR 03/M07 A3002 RMK AO2 SLP166 T00331067 =
2014-04-24 05:54 METAR KPTW 240954Z AUTO 29005KT 10SM CLR 03/M07 A2999 RMK AO2 SLP152 T00331067 =
2014-04-24 04:54 METAR KPTW 240854Z AUTO 29005KT 10SM CLR 04/M06 A2996 RMK AO2 SLP142 T00391061
                 53008 =
2014-04-24 03:54 METAR KPTW 240754Z AUTO 31008KT 10SM CLR 05/M05 A2994 RMK AO2 SLP136 T00501050 =
2014-04-24 02:54 METAR KPTW 240654Z AUTO 29007KT 10SM CLR 04/M03 A2993 RMK AO2 SLP133 T00441028 =
2014-04-24 01:54 METAR KPTW 240554Z AUTO 30005KT 10SM CLR 04/M02 A2993 RMK AO2 SLP134 T00441017
                 10106 20044 58000 =
2014-04-24 00:54 METAR KPTW 240454Z AUTO 29007KT 10SM CLR 05/M02 A2994 RMK AO2 SLP135 T00501017
                 401390050 =

Support USWX by starting your Amazon purchase here.